sensor_id;sensor_type;location;lat;lon;timestamp;P1;durP1;ratioP1;P2;durP2;ratioP2
72132;SDS011;60008;50.826;6.896;2024-02-16T00:00:18;3.90;;;1.43;;
72132;SDS011;60008;50.826;6.896;2024-02-16T00:03:04;5.00;;;1.40;;
72132;SDS011;60008;50.826;6.896;2024-02-16T00:05:49;5.40;;;1.48;;
72132;SDS011;60008;50.826;6.896;2024-02-16T00:08:36;4.57;;;1.50;;
72132;SDS011;60008;50.826;6.896;2024-02-16T00:11:23;5.60;;;1.70;;
72132;SDS011;60008;50.826;6.896;2024-02-16T00:14:10;4.50;;;1.50;;
72132;SDS011;60008;50.826;6.896;2024-02-16T00:16:56;4.43;;;1.40;;
72132;SDS011;60008;50.826;6.896;2024-02-16T00:19:41;4.18;;;1.60;;
72132;SDS011;60008;50.826;6.896;2024-02-16T00:22:26;5.40;;;1.80;;
72132;SDS011;60008;50.826;6.896;2024-02-16T00:25:11;6.50;;;1.65;;
72132;SDS011;60008;50.826;6.896;2024-02-16T00:27:58;6.33;;;1.57;;
72132;SDS011;60008;50.826;6.896;2024-02-16T00:30:44;2.80;;;1.35;;
72132;SDS011;60008;50.826;6.896;2024-02-16T00:33:29;4.72;;;1.58;;
72132;SDS011;60008;50.826;6.896;2024-02-16T00:36:14;6.13;;;1.70;;
72132;SDS011;60008;50.826;6.896;2024-02-16T00:38:59;6.53;;;1.60;;
72132;SDS011;60008;50.826;6.896;2024-02-16T00:41:44;3.50;;;1.40;;
72132;SDS011;60008;50.826;6.896;2024-02-16T00:44:31;4.95;;;1.60;;
72132;SDS011;60008;50.826;6.896;2024-02-16T00:47:16;3.58;;;1.52;;
72132;SDS011;60008;50.826;6.896;2024-02-16T00:50:02;5.68;;;1.30;;
72132;SDS011;60008;50.826;6.896;2024-02-16T00:52:50;3.45;;;1.10;;
72132;SDS011;60008;50.826;6.896;2024-02-16T00:55:35;6.90;;;1.20;;
72132;SDS011;60008;50.826;6.896;2024-02-16T00:58:20;4.75;;;1.60;;
72132;SDS011;60008;50.826;6.896;2024-02-16T01:01:06;4.90;;;1.58;;
72132;SDS011;60008;50.826;6.896;2024-02-16T01:03:55;2.95;;;1.10;;
72132;SDS011;60008;50.826;6.896;2024-02-16T01:06:40;4.18;;;1.50;;
72132;SDS011;60008;50.826;6.896;2024-02-16T01:09:26;4.00;;;1.40;;
72132;SDS011;60008;50.826;6.896;2024-02-16T01:12:11;8.30;;;1.45;;
72132;SDS011;60008;50.826;6.896;2024-02-16T01:14:56;3.42;;;1.33;;
72132;SDS011;60008;50.826;6.896;2024-02-16T01:17:42;4.05;;;1.52;;
72132;SDS011;60008;50.826;6.896;2024-02-16T01:20:27;3.75;;;1.23;;
72132;SDS011;60008;50.826;6.896;2024-02-16T01:23:15;4.83;;;1.27;;
72132;SDS011;60008;50.826;6.896;2024-02-16T01:26:00;4.05;;;1.33;;
72132;SDS011;60008;50.826;6.896;2024-02-16T01:28:45;5.07;;;1.60;;
72132;SDS011;60008;50.826;6.896;2024-02-16T01:31:30;5.43;;;1.85;;
72132;SDS011;60008;50.826;6.896;2024-02-16T01:34:16;4.25;;;1.20;;
72132;SDS011;60008;50.826;6.896;2024-02-16T01:37:01;4.50;;;1.40;;
72132;SDS011;60008;50.826;6.896;2024-02-16T01:39:46;4.03;;;1.33;;
72132;SDS011;60008;50.826;6.896;2024-02-16T01:42:31;6.38;;;1.40;;
72132;SDS011;60008;50.826;6.896;2024-02-16T01:45:17;3.88;;;1.50;;
72132;SDS011;60008;50.826;6.896;2024-02-16T01:48:02;6.50;;;1.52;;
72132;SDS011;60008;50.826;6.896;2024-02-16T01:50:48;4.00;;;1.43;;
72132;SDS011;60008;50.826;6.896;2024-02-16T01:53:34;3.80;;;1.20;;
72132;SDS011;60008;50.826;6.896;2024-02-16T01:56:21;3.25;;;1.25;;
72132;SDS011;60008;50.826;6.896;2024-02-16T01:59:07;4.28;;;1.50;;
72132;SDS011;60008;50.826;6.896;2024-02-16T02:01:52;4.72;;;1.58;;
72132;SDS011;60008;50.826;6.896;2024-02-16T02:04:38;4.60;;;1.33;;
72132;SDS011;60008;50.826;6.896;2024-02-16T02:07:24;4.93;;;1.63;;
72132;SDS011;60008;50.826;6.896;2024-02-16T02:10:11;3.75;;;1.50;;
72132;SDS011;60008;50.826;6.896;2024-02-16T02:12:57;3.38;;;1.50;;
72132;SDS011;60008;50.826;6.896;2024-02-16T02:15:42;4.32;;;1.40;;
72132;SDS011;60008;50.826;6.896;2024-02-16T02:18:27;3.87;;;1.70;;
72132;SDS011;60008;50.826;6.896;2024-02-16T02:21:13;5.03;;;1.58;;
72132;SDS011;60008;50.826;6.896;2024-02-16T02:23:59;3.95;;;1.63;;
72132;SDS011;60008;50.826;6.896;2024-02-16T02:26:44;4.30;;;1.50;;
72132;SDS011;60008;50.826;6.896;2024-02-16T02:29:29;5.47;;;1.52;;
72132;SDS011;60008;50.826;6.896;2024-02-16T02:32:15;4.40;;;1.63;;
72132;SDS011;60008;50.826;6.896;2024-02-16T02:35:01;3.95;;;1.70;;
72132;SDS011;60008;50.826;6.896;2024-02-16T02:37:46;4.00;;;1.55;;
72132;SDS011;60008;50.826;6.896;2024-02-16T02:40:31;6.90;;;1.90;;
72132;SDS011;60008;50.826;6.896;2024-02-16T02:43:17;5.88;;;1.52;;
72132;SDS011;60008;50.826;6.896;2024-02-16T02:46:03;3.60;;;1.73;;
72132;SDS011;60008;50.826;6.896;2024-02-16T02:48:48;3.35;;;1.50;;
72132;SDS011;60008;50.826;6.896;2024-02-16T02:51:36;4.05;;;1.60;;
72132;SDS011;60008;50.826;6.896;2024-02-16T02:54:21;3.15;;;1.55;;
72132;SDS011;60008;50.826;6.896;2024-02-16T02:57:07;4.95;;;1.60;;
72132;SDS011;60008;50.826;6.896;2024-02-16T02:59:52;4.93;;;1.30;;
72132;SDS011;60008;50.826;6.896;2024-02-16T03:02:37;3.78;;;1.50;;
72132;SDS011;60008;50.826;6.896;2024-02-16T03:05:23;2.92;;;1.35;;
72132;SDS011;60008;50.826;6.896;2024-02-16T03:08:08;6.15;;;1.90;;
72132;SDS011;60008;50.826;6.896;2024-02-16T03:10:55;3.67;;;1.30;;
72132;SDS011;60008;50.826;6.896;2024-02-16T03:13:40;5.90;;;2.00;;
72132;SDS011;60008;50.826;6.896;2024-02-16T03:16:25;3.85;;;1.48;;
72132;SDS011;60008;50.826;6.896;2024-02-16T03:19:11;4.80;;;1.70;;
72132;SDS011;60008;50.826;6.896;2024-02-16T03:21:56;5.00;;;1.50;;
72132;SDS011;60008;50.826;6.896;2024-02-16T03:24:41;6.78;;;1.45;;
72132;SDS011;60008;50.826;6.896;2024-02-16T03:27:26;2.73;;;1.20;;
72132;SDS011;60008;50.826;6.896;2024-02-16T03:30:11;6.20;;;1.40;;
72132;SDS011;60008;50.826;6.896;2024-02-16T03:32:56;3.20;;;1.08;;
72132;SDS011;60008;50.826;6.896;2024-02-16T03:35:41;3.70;;;1.30;;
72132;SDS011;60008;50.826;6.896;2024-02-16T03:38:26;3.85;;;1.50;;
72132;SDS011;60008;50.826;6.896;2024-02-16T03:41:12;6.03;;;1.47;;
72132;SDS011;60008;50.826;6.896;2024-02-16T03:44:08;5.30;;;1.75;;
72132;SDS011;60008;50.826;6.896;2024-02-16T03:46:53;5.03;;;1.38;;
72132;SDS011;60008;50.826;6.896;2024-02-16T03:49:43;5.47;;;1.33;;
72132;SDS011;60008;50.826;6.896;2024-02-16T03:52:28;3.88;;;1.45;;
72132;SDS011;60008;50.826;6.896;2024-02-16T03:55:13;3.47;;;1.20;;
72132;SDS011;60008;50.826;6.896;2024-02-16T03:57:59;4.80;;;1.50;;
72132;SDS011;60008;50.826;6.896;2024-02-16T04:00:44;5.88;;;1.40;;
72132;SDS011;60008;50.826;6.896;2024-02-16T04:03:29;5.53;;;1.20;;
72132;SDS011;60008;50.826;6.896;2024-02-16T04:06:14;4.35;;;1.30;;
72132;SDS011;60008;50.826;6.896;2024-02-16T04:08:59;2.90;;;0.90;;
72132;SDS011;60008;50.826;6.896;2024-02-16T04:11:45;6.25;;;1.40;;
72132;SDS011;60008;50.826;6.896;2024-02-16T04:14:31;3.28;;;1.20;;
72132;SDS011;60008;50.826;6.896;2024-02-16T04:17:17;3.63;;;1.20;;
72132;SDS011;60008;50.826;6.896;2024-02-16T04:20:02;4.40;;;1.25;;
72132;SDS011;60008;50.826;6.896;2024-02-16T04:22:47;3.53;;;1.40;;
72132;SDS011;60008;50.826;6.896;2024-02-16T04:25:32;4.15;;;1.30;;
72132;SDS011;60008;50.826;6.896;2024-02-16T04:28:17;3.53;;;1.38;;
72132;SDS011;60008;50.826;6.896;2024-02-16T04:31:03;3.78;;;1.30;;
72132;SDS011;60008;50.826;6.896;2024-02-16T04:33:48;5.15;;;1.33;;
72132;SDS011;60008;50.826;6.896;2024-02-16T04:36:34;3.67;;;1.40;;
72132;SDS011;60008;50.826;6.896;2024-02-16T04:39:19;2.97;;;1.30;;
72132;SDS011;60008;50.826;6.896;2024-02-16T04:42:04;2.92;;;0.93;;
72132;SDS011;60008;50.826;6.896;2024-02-16T04:44:50;4.72;;;1.40;;
72132;SDS011;60008;50.826;6.896;2024-02-16T04:47:35;4.13;;;1.33;;
72132;SDS011;60008;50.826;6.896;2024-02-16T04:50:20;3.50;;;1.23;;
72132;SDS011;60008;50.826;6.896;2024-02-16T04:53:05;4.60;;;1.30;;
72132;SDS011;60008;50.826;6.896;2024-02-16T04:55:50;4.53;;;1.10;;
72132;SDS011;60008;50.826;6.896;2024-02-16T04:58:39;3.70;;;1.50;;
72132;SDS011;60008;50.826;6.896;2024-02-16T05:01:25;4.80;;;1.30;;
72132;SDS011;60008;50.826;6.896;2024-02-16T05:04:11;2.87;;;1.20;;
72132;SDS011;60008;50.826;6.896;2024-02-16T05:06:58;4.38;;;1.90;;
72132;SDS011;60008;50.826;6.896;2024-02-16T05:09:43;5.53;;;1.40;;
72132;SDS011;60008;50.826;6.896;2024-02-16T05:12:29;4.50;;;1.30;;
72132;SDS011;60008;50.826;6.896;2024-02-16T05:15:14;5.18;;;1.40;;
72132;SDS011;60008;50.826;6.896;2024-02-16T05:18:00;6.30;;;1.30;;
72132;SDS011;60008;50.826;6.896;2024-02-16T05:20:45;4.00;;;1.40;;
72132;SDS011;60008;50.826;6.896;2024-02-16T05:23:31;5.22;;;1.30;;
72132;SDS011;60008;50.826;6.896;2024-02-16T05:26:16;1.83;;;0.82;;
72132;SDS011;60008;50.826;6.896;2024-02-16T05:29:01;4.45;;;1.30;;
72132;SDS011;60008;50.826;6.896;2024-02-16T05:31:46;5.97;;;1.50;;
72132;SDS011;60008;50.826;6.896;2024-02-16T05:34:32;5.38;;;1.63;;
72132;SDS011;60008;50.826;6.896;2024-02-16T05:37:22;4.22;;;1.58;;
72132;SDS011;60008;50.826;6.896;2024-02-16T05:40:08;4.80;;;1.60;;
72132;SDS011;60008;50.826;6.896;2024-02-16T05:43:03;5.47;;;1.50;;
72132;SDS011;60008;50.826;6.896;2024-02-16T05:45:49;3.00;;;1.40;;
72132;SDS011;60008;50.826;6.896;2024-02-16T05:48:34;4.00;;;1.42;;
72132;SDS011;60008;50.826;6.896;2024-02-16T05:51:24;5.30;;;1.50;;
72132;SDS011;60008;50.826;6.896;2024-02-16T05:54:09;3.85;;;1.02;;
72132;SDS011;60008;50.826;6.896;2024-02-16T05:56:55;3.20;;;1.23;;
72132;SDS011;60008;50.826;6.896;2024-02-16T05:59:41;4.83;;;1.27;;
72132;SDS011;60008;50.826;6.896;2024-02-16T06:02:26;4.15;;;1.13;;
72132;SDS011;60008;50.826;6.896;2024-02-16T06:05:12;3.88;;;1.25;;
72132;SDS011;60008;50.826;6.896;2024-02-16T06:07:57;6.10;;;1.30;;
72132;SDS011;60008;50.826;6.896;2024-02-16T06:10:43;3.15;;;1.40;;
72132;SDS011;60008;50.826;6.896;2024-02-16T06:13:29;5.43;;;1.20;;
72132;SDS011;60008;50.826;6.896;2024-02-16T06:16:14;4.55;;;1.10;;
72132;SDS011;60008;50.826;6.896;2024-02-16T06:18:59;3.03;;;1.10;;
72132;SDS011;60008;50.826;6.896;2024-02-16T06:21:45;5.53;;;1.30;;
72132;SDS011;60008;50.826;6.896;2024-02-16T06:24:29;4.35;;;1.38;;
72132;SDS011;60008;50.826;6.896;2024-02-16T06:27:15;6.30;;;1.30;;
72132;SDS011;60008;50.826;6.896;2024-02-16T06:30:00;5.47;;;1.30;;
72132;SDS011;60008;50.826;6.896;2024-02-16T06:32:46;5.05;;;1.25;;
72132;SDS011;60008;50.826;6.896;2024-02-16T06:35:32;2.25;;;1.10;;
72132;SDS011;60008;50.826;6.896;2024-02-16T06:38:18;5.60;;;1.38;;
72132;SDS011;60008;50.826;6.896;2024-02-16T06:41:03;2.87;;;1.40;;
72132;SDS011;60008;50.826;6.896;2024-02-16T06:43:49;4.82;;;1.60;;
72132;SDS011;60008;50.826;6.896;2024-02-16T06:46:34;4.22;;;1.23;;
72132;SDS011;60008;50.826;6.896;2024-02-16T06:49:19;3.17;;;1.30;;
72132;SDS011;60008;50.826;6.896;2024-02-16T06:52:04;4.75;;;1.50;;
72132;SDS011;60008;50.826;6.896;2024-02-16T06:54:50;3.03;;;1.17;;
72132;SDS011;60008;50.826;6.896;2024-02-16T06:57:36;4.82;;;1.40;;
72132;SDS011;60008;50.826;6.896;2024-02-16T07:00:21;8.82;;;1.75;;
72132;SDS011;60008;50.826;6.896;2024-02-16T07:03:08;7.90;;;1.45;;
72132;SDS011;60008;50.826;6.896;2024-02-16T07:05:53;3.88;;;1.45;;
72132;SDS011;60008;50.826;6.896;2024-02-16T07:08:42;3.30;;;1.20;;
72132;SDS011;60008;50.826;6.896;2024-02-16T07:11:28;5.28;;;1.30;;
72132;SDS011;60008;50.826;6.896;2024-02-16T07:14:13;4.75;;;1.63;;
72132;SDS011;60008;50.826;6.896;2024-02-16T07:16:58;4.60;;;1.35;;
72132;SDS011;60008;50.826;6.896;2024-02-16T07:19:43;2.65;;;1.17;;
72132;SDS011;60008;50.826;6.896;2024-02-16T07:22:28;4.80;;;1.40;;
72132;SDS011;60008;50.826;6.896;2024-02-16T07:25:14;4.18;;;1.55;;
72132;SDS011;60008;50.826;6.896;2024-02-16T07:27:59;5.00;;;1.70;;
72132;SDS011;60008;50.826;6.896;2024-02-16T07:30:44;5.20;;;1.42;;
72132;SDS011;60008;50.826;6.896;2024-02-16T07:33:29;3.33;;;1.52;;
72132;SDS011;60008;50.826;6.896;2024-02-16T07:36:14;4.60;;;1.73;;
72132;SDS011;60008;50.826;6.896;2024-02-16T07:39:02;5.22;;;1.25;;
72132;SDS011;60008;50.826;6.896;2024-02-16T07:41:49;4.45;;;1.40;;
72132;SDS011;60008;50.826;6.896;2024-02-16T07:44:35;4.38;;;1.48;;
72132;SDS011;60008;50.826;6.896;2024-02-16T07:47:20;3.80;;;1.40;;
72132;SDS011;60008;50.826;6.896;2024-02-16T07:50:06;5.37;;;1.40;;
72132;SDS011;60008;50.826;6.896;2024-02-16T07:52:51;6.03;;;1.70;;
72132;SDS011;60008;50.826;6.896;2024-02-16T07:55:36;4.50;;;1.63;;
72132;SDS011;60008;50.826;6.896;2024-02-16T07:58:22;3.60;;;1.50;;
72132;SDS011;60008;50.826;6.896;2024-02-16T08:01:07;5.22;;;1.50;;
72132;SDS011;60008;50.826;6.896;2024-02-16T08:03:52;3.73;;;1.60;;
72132;SDS011;60008;50.826;6.896;2024-02-16T08:06:37;5.45;;;1.73;;
72132;SDS011;60008;50.826;6.896;2024-02-16T08:09:23;4.72;;;1.40;;
72132;SDS011;60008;50.826;6.896;2024-02-16T08:12:08;4.30;;;1.52;;
72132;SDS011;60008;50.826;6.896;2024-02-16T08:14:53;5.90;;;1.58;;
72132;SDS011;60008;50.826;6.896;2024-02-16T08:17:41;7.90;;;2.20;;
72132;SDS011;60008;50.826;6.896;2024-02-16T08:20:26;4.13;;;1.70;;
72132;SDS011;60008;50.826;6.896;2024-02-16T08:23:11;4.30;;;1.60;;
72132;SDS011;60008;50.826;6.896;2024-02-16T08:25:56;4.47;;;1.50;;
72132;SDS011;60008;50.826;6.896;2024-02-16T08:28:43;6.35;;;2.00;;
72132;SDS011;60008;50.826;6.896;2024-02-16T08:31:29;7.07;;;1.80;;
72132;SDS011;60008;50.826;6.896;2024-02-16T08:34:14;4.47;;;1.55;;
72132;SDS011;60008;50.826;6.896;2024-02-16T08:36:59;6.18;;;2.00;;
72132;SDS011;60008;50.826;6.896;2024-02-16T08:39:46;6.93;;;1.60;;
72132;SDS011;60008;50.826;6.896;2024-02-16T08:42:32;10.65;;;1.80;;
72132;SDS011;60008;50.826;6.896;2024-02-16T08:45:17;4.73;;;1.50;;
72132;SDS011;60008;50.826;6.896;2024-02-16T08:48:02;3.72;;;1.50;;
72132;SDS011;60008;50.826;6.896;2024-02-16T08:50:49;4.57;;;1.65;;
72132;SDS011;60008;50.826;6.896;2024-02-16T08:53:34;4.97;;;1.70;;
72132;SDS011;60008;50.826;6.896;2024-02-16T08:56:20;7.40;;;1.70;;
72132;SDS011;60008;50.826;6.896;2024-02-16T08:59:05;4.77;;;1.80;;
72132;SDS011;60008;50.826;6.896;2024-02-16T09:01:50;9.20;;;2.05;;
72132;SDS011;60008;50.826;6.896;2024-02-16T09:04:35;4.22;;;2.00;;
72132;SDS011;60008;50.826;6.896;2024-02-16T09:07:21;12.68;;;1.77;;
72132;SDS011;60008;50.826;6.896;2024-02-16T09:10:07;4.00;;;1.67;;
72132;SDS011;60008;50.826;6.896;2024-02-16T09:12:53;5.23;;;2.07;;
72132;SDS011;60008;50.826;6.896;2024-02-16T09:15:38;4.72;;;1.95;;
72132;SDS011;60008;50.826;6.896;2024-02-16T09:18:23;3.45;;;1.92;;
72132;SDS011;60008;50.826;6.896;2024-02-16T09:21:08;5.75;;;1.70;;
72132;SDS011;60008;50.826;6.896;2024-02-16T09:23:53;5.70;;;1.77;;
72132;SDS011;60008;50.826;6.896;2024-02-16T09:26:38;4.37;;;1.40;;
72132;SDS011;60008;50.826;6.896;2024-02-16T09:29:23;6.72;;;1.70;;
72132;SDS011;60008;50.826;6.896;2024-02-16T09:32:09;7.07;;;1.92;;
72132;SDS011;60008;50.826;6.896;2024-02-16T09:34:54;5.80;;;1.58;;
72132;SDS011;60008;50.826;6.896;2024-02-16T09:37:40;5.38;;;1.90;;
72132;SDS011;60008;50.826;6.896;2024-02-16T09:40:25;4.57;;;2.10;;
72132;SDS011;60008;50.826;6.896;2024-02-16T09:43:22;5.22;;;1.77;;
72132;SDS011;60008;50.826;6.896;2024-02-16T09:46:09;7.30;;;1.95;;
72132;SDS011;60008;50.826;6.896;2024-02-16T09:48:54;6.45;;;1.80;;
72132;SDS011;60008;50.826;6.896;2024-02-16T09:51:40;6.75;;;2.00;;
72132;SDS011;60008;50.826;6.896;2024-02-16T09:54:25;6.90;;;2.10;;
72132;SDS011;60008;50.826;6.896;2024-02-16T09:57:10;5.55;;;1.83;;
72132;SDS011;60008;50.826;6.896;2024-02-16T09:59:56;6.95;;;2.05;;
72132;SDS011;60008;50.826;6.896;2024-02-16T10:02:42;6.32;;;2.00;;
72132;SDS011;60008;50.826;6.896;2024-02-16T10:05:28;5.47;;;2.08;;
72132;SDS011;60008;50.826;6.896;2024-02-16T10:08:15;4.10;;;1.87;;
72132;SDS011;60008;50.826;6.896;2024-02-16T10:11:01;6.97;;;1.80;;
72132;SDS011;60008;50.826;6.896;2024-02-16T10:14:02;4.22;;;1.77;;
72132;SDS011;60008;50.826;6.896;2024-02-16T10:16:58;5.63;;;1.92;;
72132;SDS011;60008;50.826;6.896;2024-02-16T10:19:44;6.07;;;2.28;;
72132;SDS011;60008;50.826;6.896;2024-02-16T10:22:29;5.27;;;2.17;;
72132;SDS011;60008;50.826;6.896;2024-02-16T10:25:14;7.45;;;2.13;;
72132;SDS011;60008;50.826;6.896;2024-02-16T10:28:01;6.13;;;2.03;;
72132;SDS011;60008;50.826;6.896;2024-02-16T10:30:50;9.25;;;1.88;;
72132;SDS011;60008;50.826;6.896;2024-02-16T10:33:36;8.15;;;2.20;;
72132;SDS011;60008;50.826;6.896;2024-02-16T10:36:23;7.90;;;1.97;;
72132;SDS011;60008;50.826;6.896;2024-02-16T10:39:09;4.90;;;2.00;;
72132;SDS011;60008;50.826;6.896;2024-02-16T10:41:56;4.63;;;2.13;;
72132;SDS011;60008;50.826;6.896;2024-02-16T10:44:42;6.97;;;2.25;;
72132;SDS011;60008;50.826;6.896;2024-02-16T10:47:28;9.55;;;2.30;;
72132;SDS011;60008;50.826;6.896;2024-02-16T10:50:13;5.90;;;2.27;;
72132;SDS011;60008;50.826;6.896;2024-02-16T10:53:00;7.07;;;2.20;;
72132;SDS011;60008;50.826;6.896;2024-02-16T10:56:08;7.75;;;2.08;;
72132;SDS011;60008;50.826;6.896;2024-02-16T10:58:53;5.43;;;2.00;;
72132;SDS011;60008;50.826;6.896;2024-02-16T11:01:40;5.70;;;2.35;;
72132;SDS011;60008;50.826;6.896;2024-02-16T11:04:35;5.97;;;2.20;;
72132;SDS011;60008;50.826;6.896;2024-02-16T11:07:24;8.43;;;3.38;;
72132;SDS011;60008;50.826;6.896;2024-02-16T11:10:12;8.07;;;2.30;;
72132;SDS011;60008;50.826;6.896;2024-02-16T11:13:03;4.70;;;2.20;;
72132;SDS011;60008;50.826;6.896;2024-02-16T11:15:55;6.55;;;2.20;;
72132;SDS011;60008;50.826;6.896;2024-02-16T11:18:42;7.93;;;2.13;;
72132;SDS011;60008;50.826;6.896;2024-02-16T11:21:34;7.50;;;2.10;;
72132;SDS011;60008;50.826;6.896;2024-02-16T11:24:19;4.38;;;2.00;;
72132;SDS011;60008;50.826;6.896;2024-02-16T11:27:09;7.05;;;1.65;;
72132;SDS011;60008;50.826;6.896;2024-02-16T11:29:55;6.10;;;1.40;;
72132;SDS011;60008;50.826;6.896;2024-02-16T11:32:45;8.03;;;1.70;;
72132;SDS011;60008;50.826;6.896;2024-02-16T11:35:31;8.07;;;1.42;;
72132;SDS011;60008;50.826;6.896;2024-02-16T11:38:16;4.60;;;1.50;;
72132;SDS011;60008;50.826;6.896;2024-02-16T11:41:04;4.40;;;1.45;;
72132;SDS011;60008;50.826;6.896;2024-02-16T11:43:50;6.60;;;1.60;;
72132;SDS011;60008;50.826;6.896;2024-02-16T11:46:35;4.17;;;1.30;;
72132;SDS011;60008;50.826;6.896;2024-02-16T11:49:20;5.22;;;1.77;;
72132;SDS011;60008;50.826;6.896;2024-02-16T11:52:05;6.88;;;1.63;;
72132;SDS011;60008;50.826;6.896;2024-02-16T11:54:52;4.97;;;1.60;;
72132;SDS011;60008;50.826;6.896;2024-02-16T11:57:37;6.15;;;1.63;;
72132;SDS011;60008;50.826;6.896;2024-02-16T12:00:23;4.87;;;1.50;;
72132;SDS011;60008;50.826;6.896;2024-02-16T12:03:08;5.85;;;1.80;;
72132;SDS011;60008;50.826;6.896;2024-02-16T12:05:56;5.13;;;1.70;;
72132;SDS011;60008;50.826;6.896;2024-02-16T12:08:42;7.95;;;2.17;;
72132;SDS011;60008;50.826;6.896;2024-02-16T12:11:29;6.57;;;1.90;;
72132;SDS011;60008;50.826;6.896;2024-02-16T12:14:15;3.67;;;1.50;;
72132;SDS011;60008;50.826;6.896;2024-02-16T12:17:01;9.52;;;1.90;;
72132;SDS011;60008;50.826;6.896;2024-02-16T12:19:46;7.10;;;1.95;;
72132;SDS011;60008;50.826;6.896;2024-02-16T12:22:33;5.07;;;1.67;;
72132;SDS011;60008;50.826;6.896;2024-02-16T12:25:18;7.45;;;1.92;;
72132;SDS011;60008;50.826;6.896;2024-02-16T12:28:03;5.07;;;1.63;;
72132;SDS011;60008;50.826;6.896;2024-02-16T12:30:48;4.88;;;1.85;;
72132;SDS011;60008;50.826;6.896;2024-02-16T12:33:34;5.72;;;2.00;;
72132;SDS011;60008;50.826;6.896;2024-02-16T12:36:19;5.28;;;1.88;;
72132;SDS011;60008;50.826;6.896;2024-02-16T12:39:05;7.97;;;2.13;;
72132;SDS011;60008;50.826;6.896;2024-02-16T12:41:50;4.37;;;1.73;;
72132;SDS011;60008;50.826;6.896;2024-02-16T12:44:35;8.10;;;1.80;;
72132;SDS011;60008;50.826;6.896;2024-02-16T12:47:21;4.50;;;1.70;;
72132;SDS011;60008;50.826;6.896;2024-02-16T12:50:06;5.93;;;2.10;;
72132;SDS011;60008;50.826;6.896;2024-02-16T12:52:52;6.22;;;1.92;;
72132;SDS011;60008;50.826;6.896;2024-02-16T12:55:47;6.07;;;2.03;;
72132;SDS011;60008;50.826;6.896;2024-02-16T12:58:32;5.28;;;1.60;;
72132;SDS011;60008;50.826;6.896;2024-02-16T13:01:18;3.90;;;1.60;;
72132;SDS011;60008;50.826;6.896;2024-02-16T13:04:10;5.28;;;1.90;;
72132;SDS011;60008;50.826;6.896;2024-02-16T13:06:55;11.00;;;2.00;;
72132;SDS011;60008;50.826;6.896;2024-02-16T13:09:40;6.77;;;2.10;;
72132;SDS011;60008;50.826;6.896;2024-02-16T13:12:27;8.73;;;2.22;;
72132;SDS011;60008;50.826;6.896;2024-02-16T13:15:12;9.40;;;2.22;;
72132;SDS011;60008;50.826;6.896;2024-02-16T13:18:12;6.82;;;2.17;;
72132;SDS011;60008;50.826;6.896;2024-02-16T13:20:57;6.85;;;2.58;;
72132;SDS011;60008;50.826;6.896;2024-02-16T13:23:42;11.03;;;2.60;;
72132;SDS011;60008;50.826;6.896;2024-02-16T13:26:27;7.00;;;2.40;;
72132;SDS011;60008;50.826;6.896;2024-02-16T13:29:12;8.73;;;3.38;;
72132;SDS011;60008;50.826;6.896;2024-02-16T13:31:57;9.90;;;3.95;;
72132;SDS011;60008;50.826;6.896;2024-02-16T13:34:42;9.25;;;3.50;;
72132;SDS011;60008;50.826;6.896;2024-02-16T13:37:27;6.73;;;2.93;;
72132;SDS011;60008;50.826;6.896;2024-02-16T13:40:12;6.97;;;2.92;;
72132;SDS011;60008;50.826;6.896;2024-02-16T13:42:58;5.93;;;2.63;;
72132;SDS011;60008;50.826;6.896;2024-02-16T13:45:52;8.30;;;2.80;;
72132;SDS011;60008;50.826;6.896;2024-02-16T13:48:39;7.00;;;3.00;;
72132;SDS011;60008;50.826;6.896;2024-02-16T13:51:26;10.33;;;3.10;;
72132;SDS011;60008;50.826;6.896;2024-02-16T13:54:11;7.55;;;3.25;;
72132;SDS011;60008;50.826;6.896;2024-02-16T13:56:57;8.10;;;3.30;;
72132;SDS011;60008;50.826;6.896;2024-02-16T13:59:42;11.43;;;3.40;;
72132;SDS011;60008;50.826;6.896;2024-02-16T14:02:28;5.30;;;3.05;;
72132;SDS011;60008;50.826;6.896;2024-02-16T14:05:13;6.93;;;2.93;;
72132;SDS011;60008;50.826;6.896;2024-02-16T14:07:58;6.60;;;3.35;;
72132;SDS011;60008;50.826;6.896;2024-02-16T14:10:45;12.63;;;3.42;;
72132;SDS011;60008;50.826;6.896;2024-02-16T14:13:30;9.38;;;3.85;;
72132;SDS011;60008;50.826;6.896;2024-02-16T14:16:15;8.43;;;3.72;;
72132;SDS011;60008;50.826;6.896;2024-02-16T14:19:00;8.80;;;4.27;;
72132;SDS011;60008;50.826;6.896;2024-02-16T14:21:46;9.88;;;3.80;;
72132;SDS011;60008;50.826;6.896;2024-02-16T14:24:32;8.77;;;3.70;;
72132;SDS011;60008;50.826;6.896;2024-02-16T14:27:17;11.48;;;3.70;;
72132;SDS011;60008;50.826;6.896;2024-02-16T14:30:02;11.18;;;3.40;;
72132;SDS011;60008;50.826;6.896;2024-02-16T14:32:49;12.33;;;3.30;;
72132;SDS011;60008;50.826;6.896;2024-02-16T14:35:38;7.82;;;3.42;;
72132;SDS011;60008;50.826;6.896;2024-02-16T14:38:23;9.20;;;3.50;;
72132;SDS011;60008;50.826;6.896;2024-02-16T14:41:08;7.60;;;3.30;;
72132;SDS011;60008;50.826;6.896;2024-02-16T14:43:54;6.88;;;3.30;;
72132;SDS011;60008;50.826;6.896;2024-02-16T14:46:39;9.17;;;3.13;;
72132;SDS011;60008;50.826;6.896;2024-02-16T14:49:24;7.63;;;3.08;;
72132;SDS011;60008;50.826;6.896;2024-02-16T14:52:11;5.85;;;3.15;;
72132;SDS011;60008;50.826;6.896;2024-02-16T14:54:57;6.25;;;3.40;;
72132;SDS011;60008;50.826;6.896;2024-02-16T14:57:42;6.07;;;2.90;;
72132;SDS011;60008;50.826;6.896;2024-02-16T15:00:29;5.83;;;2.67;;
72132;SDS011;60008;50.826;6.896;2024-02-16T15:03:14;7.57;;;2.67;;
72132;SDS011;60008;50.826;6.896;2024-02-16T15:06:00;5.18;;;2.50;;
72132;SDS011;60008;50.826;6.896;2024-02-16T15:08:45;6.93;;;2.10;;
72132;SDS011;60008;50.826;6.896;2024-02-16T15:11:30;5.68;;;2.55;;
72132;SDS011;60008;50.826;6.896;2024-02-16T15:14:16;7.40;;;2.30;;
72132;SDS011;60008;50.826;6.896;2024-02-16T15:17:04;6.55;;;2.70;;
72132;SDS011;60008;50.826;6.896;2024-02-16T15:19:50;4.45;;;2.58;;
72132;SDS011;60008;50.826;6.896;2024-02-16T15:22:36;6.28;;;2.17;;
72132;SDS011;60008;50.826;6.896;2024-02-16T15:25:32;6.20;;;2.25;;
72132;SDS011;60008;50.826;6.896;2024-02-16T15:28:18;6.13;;;2.27;;
72132;SDS011;60008;50.826;6.896;2024-02-16T15:31:03;4.20;;;2.35;;
72132;SDS011;60008;50.826;6.896;2024-02-16T15:33:49;6.03;;;2.53;;
72132;SDS011;60008;50.826;6.896;2024-02-16T15:36:35;7.10;;;2.30;;
72132;SDS011;60008;50.826;6.896;2024-02-16T15:39:21;6.22;;;2.30;;
72132;SDS011;60008;50.826;6.896;2024-02-16T15:42:06;4.37;;;1.97;;
72132;SDS011;60008;50.826;6.896;2024-02-16T15:44:57;4.15;;;1.98;;
72132;SDS011;60008;50.826;6.896;2024-02-16T15:47:43;7.80;;;2.80;;
72132;SDS011;60008;50.826;6.896;2024-02-16T15:50:28;8.05;;;2.28;;
72132;SDS011;60008;50.826;6.896;2024-02-16T15:53:15;5.65;;;2.20;;
72132;SDS011;60008;50.826;6.896;2024-02-16T15:56:00;5.03;;;2.07;;
72132;SDS011;60008;50.826;6.896;2024-02-16T15:58:48;4.80;;;2.40;;
72132;SDS011;60008;50.826;6.896;2024-02-16T16:01:33;7.00;;;2.30;;
72132;SDS011;60008;50.826;6.896;2024-02-16T16:04:19;5.55;;;2.88;;
72132;SDS011;60008;50.826;6.896;2024-02-16T16:07:05;7.10;;;2.88;;
72132;SDS011;60008;50.826;6.896;2024-02-16T16:09:53;3.70;;;1.70;;
72132;SDS011;60008;50.826;6.896;2024-02-16T16:12:38;5.07;;;1.85;;
72132;SDS011;60008;50.826;6.896;2024-02-16T16:15:24;5.03;;;2.10;;
72132;SDS011;60008;50.826;6.896;2024-02-16T16:18:09;3.58;;;1.73;;
72132;SDS011;60008;50.826;6.896;2024-02-16T16:20:57;3.78;;;2.00;;
72132;SDS011;60008;50.826;6.896;2024-02-16T16:23:42;3.57;;;2.00;;
72132;SDS011;60008;50.826;6.896;2024-02-16T16:26:27;3.92;;;1.70;;
72132;SDS011;60008;50.826;6.896;2024-02-16T16:29:12;4.38;;;1.90;;
72132;SDS011;60008;50.826;6.896;2024-02-16T16:32:00;4.35;;;1.65;;
72132;SDS011;60008;50.826;6.896;2024-02-16T16:34:50;6.00;;;2.10;;
72132;SDS011;60008;50.826;6.896;2024-02-16T16:37:37;4.30;;;1.70;;
72132;SDS011;60008;50.826;6.896;2024-02-16T16:40:22;3.90;;;1.70;;